Time;durP1;ratioP1;P1;durP2;ratioP2;P2;SDS_P1;SDS_P2;PMS_P1;PMS_P2;Temp;Humidity;BMP_temperature;BMP_pressure;BME280_temperature;BME280_humidity;BME280_pressure;Samples;Min_cycle;Max_cycle;Signal;HPM_P1;HPM_P2
2023/07/16 00:00:04;;;;;;;10.02;2.72;;;;;;;;;;5082603;27;20043;-77
2023/07/16 00:02:30;;;;;;;9.20;2.67;;;;;;;;;;5085479;27;20459;-76
2023/07/16 00:04:56;;;;;;;8.63;2.90;;;;;;;;;;5085706;27;20039;-77
2023/07/16 00:07:23;;;;;;;9.07;2.80;;;;;;;;;;5105252;27;20043;-77
2023/07/16 00:09:49;;;;;;;9.00;2.78;;;;;;;;;;5083387;27;20043;-77
2023/07/16 00:12:15;;;;;;;12.80;3.22;;;;;;;;;;5087516;27;20065;-77
2023/07/16 00:14:41;;;;;;;9.88;2.72;;;;;;;;;;5084672;27;20186;-77
2023/07/16 00:17:07;;;;;;;7.30;2.50;;;;;;;;;;5095895;27;20039;-77
2023/07/16 00:19:33;;;;;;;4.82;2.22;;;;;;;;;;5083940;27;20128;-76
2023/07/16 00:21:59;;;;;;;7.50;2.60;;;;;;;;;;5102726;27;20103;-77
2023/07/16 00:24:25;;;;;;;8.40;2.58;;;;;;;;;;5082809;27;20039;-77
2023/07/16 00:26:51;;;;;;;11.15;2.50;;;;;;;;;;5101927;27;20106;-78
2023/07/16 00:29:17;;;;;;;9.38;2.42;;;;;;;;;;5102914;27;20663;-78
2023/07/16 00:31:43;;;;;;;9.35;2.75;;;;;;;;;;5083099;27;20104;-78
2023/07/16 00:34:09;;;;;;;11.15;2.50;;;;;;;;;;5083735;27;20477;-78
2023/07/16 00:36:35;;;;;;;8.38;2.50;;;;;;;;;;5083558;27;20046;-78
2023/07/16 00:39:01;;;;;;;19.65;3.08;;;;;;;;;;5083956;27;20039;-77
2023/07/16 00:41:27;;;;;;;11.38;2.60;;;;;;;;;;5081549;27;20557;-78
2023/07/16 00:43:54;;;;;;;9.70;2.92;;;;;;;;;;5083944;27;20044;-78
2023/07/16 00:46:20;;;;;;;10.02;3.72;;;;;;;;;;5102693;27;20062;-77
2023/07/16 00:48:46;;;;;;;10.45;3.10;;;;;;;;;;5085016;27;20051;-77
2023/07/16 00:51:14;;;;;;;10.90;2.80;;;;;;;;;;5068373;27;20165;-76
2023/07/16 00:53:41;;;;;;;10.90;2.88;;;;;;;;;;5079659;27;20096;-76
2023/07/16 00:56:08;;;;;;;9.02;2.70;;;;;;;;;;5085373;27;21184;-76
2023/07/16 00:58:34;;;;;;;13.48;3.40;;;;;;;;;;5084039;27;20100;-77
2023/07/16 01:01:00;;;;;;;7.93;3.00;;;;;;;;;;5082857;27;20550;-77
2023/07/16 01:03:27;;;;;;;9.07;2.85;;;;;;;;;;5067888;27;20626;-77
2023/07/16 01:05:53;;;;;;;9.48;2.90;;;;;;;;;;5080125;28;20039;-77
2023/07/16 01:08:22;;;;;;;8.40;2.38;;;;;;;;;;5101913;27;20162;-77
2023/07/16 01:10:49;;;;;;;8.70;3.33;;;;;;;;;;5104054;27;20077;-76
2023/07/16 01:13:15;;;;;;;9.02;2.90;;;;;;;;;;5101749;27;21953;-76
2023/07/16 01:15:41;;;;;;;9.45;2.83;;;;;;;;;;5080891;27;20065;-76
2023/07/16 01:18:07;;;;;;;6.90;3.10;;;;;;;;;;5083211;27;20039;-77
2023/07/16 01:20:35;;;;;;;10.93;3.03;;;;;;;;;;5084057;27;20050;-77
2023/07/16 01:23:16;;;;;;;13.82;2.75;;;;;;;;;;5102708;27;20073;-78
2023/07/16 01:25:56;;;;;;;12.43;3.22;;;;;;;;;;5102906;28;20498;-78
2023/07/16 01:28:41;;;;;;;5.88;2.28;;;;;;;;;;5066217;28;20058;-78
2023/07/16 01:31:09;;;;;;;11.35;3.10;;;;;;;;;;5100544;27;20710;-78
2023/07/16 01:33:35;;;;;;;12.88;4.05;;;;;;;;;;5102463;27;20027;-77
2023/07/16 01:36:02;;;;;;;9.52;3.30;;;;;;;;;;5103067;27;20111;-78
2023/07/16 01:38:28;;;;;;;7.32;2.83;;;;;;;;;;5085299;28;20097;-78
2023/07/16 01:40:55;;;;;;;7.63;3.42;;;;;;;;;;5070100;28;20050;-77
2023/07/16 01:43:21;;;;;;;9.30;3.03;;;;;;;;;;5104090;27;20468;-77
2023/07/16 01:45:47;;;;;;;10.73;3.17;;;;;;;;;;5084525;28;20043;-78
2023/07/16 01:48:30;;;;;;;12.35;4.00;;;;;;;;;;5097595;27;20132;-76
2023/07/16 01:50:57;;;;;;;8.13;3.03;;;;;;;;;;5085030;27;20120;-77
2023/07/16 01:53:23;;;;;;;14.85;3.25;;;;;;;;;;5103039;27;20058;-77
2023/07/16 01:55:49;;;;;;;10.65;2.97;;;;;;;;;;5070213;27;20031;-78
2023/07/16 01:58:15;;;;;;;9.90;3.30;;;;;;;;;;5084854;27;20046;-78
2023/07/16 02:00:41;;;;;;;9.38;2.92;;;;;;;;;;5065600;27;20043;-78
2023/07/16 02:03:07;;;;;;;13.38;2.80;;;;;;;;;;5086746;27;20153;-76
2023/07/16 02:05:33;;;;;;;9.85;2.90;;;;;;;;;;5086421;27;20041;-77
2023/07/16 02:07:59;;;;;;;10.35;2.90;;;;;;;;;;5087378;27;20130;-77
2023/07/16 02:10:25;;;;;;;9.23;2.97;;;;;;;;;;5084271;27;20151;-76
2023/07/16 02:12:51;;;;;;;9.00;2.60;;;;;;;;;;5102816;27;20085;-77
2023/07/16 02:15:17;;;;;;;8.80;3.00;;;;;;;;;;5070392;27;20488;-77
2023/07/16 02:17:44;;;;;;;8.15;2.83;;;;;;;;;;5087521;27;20077;-76
2023/07/16 02:20:10;;;;;;;9.52;3.15;;;;;;;;;;5084941;27;20050;-75
2023/07/16 02:22:37;;;;;;;9.77;2.97;;;;;;;;;;5103635;27;21418;-76
2023/07/16 02:25:03;;;;;;;12.45;3.00;;;;;;;;;;5103676;27;20042;-77
2023/07/16 02:27:30;;;;;;;9.85;2.85;;;;;;;;;;5088228;27;20126;-77
2023/07/16 02:29:56;;;;;;;8.75;2.55;;;;;;;;;;5106464;27;20132;-78
2023/07/16 02:32:22;;;;;;;7.18;3.00;;;;;;;;;;5104089;27;20702;-77
2023/07/16 02:34:49;;;;;;;10.05;2.80;;;;;;;;;;5103003;27;20085;-77
2023/07/16 02:37:15;;;;;;;8.57;3.17;;;;;;;;;;5087634;27;20244;-76
2023/07/16 02:39:42;;;;;;;9.73;2.97;;;;;;;;;;5070070;27;20047;-77
2023/07/16 02:42:08;;;;;;;15.88;3.80;;;;;;;;;;5084889;27;20119;-77
2023/07/16 02:44:38;;;;;;;9.85;3.03;;;;;;;;;;5099891;27;20039;-78
2023/07/16 02:47:05;;;;;;;8.10;3.13;;;;;;;;;;5082990;27;20874;-77
2023/07/16 02:49:31;;;;;;;12.00;3.08;;;;;;;;;;5102753;27;20055;-77
2023/07/16 02:51:57;;;;;;;9.85;3.83;;;;;;;;;;5085529;27;20242;-77
2023/07/16 02:54:23;;;;;;;9.35;3.75;;;;;;;;;;5085443;27;20043;-78
2023/07/16 02:56:49;;;;;;;9.30;3.42;;;;;;;;;;5085797;27;20045;-76
2023/07/16 02:59:16;;;;;;;10.40;3.75;;;;;;;;;;5095349;27;20105;-76
2023/07/16 03:01:42;;;;;;;12.90;4.18;;;;;;;;;;5084589;27;20074;-76
2023/07/16 03:04:08;;;;;;;13.52;3.50;;;;;;;;;;5066718;27;21091;-78
2023/07/16 03:06:34;;;;;;;14.60;3.72;;;;;;;;;;5084682;27;20107;-77
2023/07/16 03:09:00;;;;;;;11.07;4.05;;;;;;;;;;5103838;27;20039;-77
2023/07/16 03:11:26;;;;;;;9.88;3.60;;;;;;;;;;5104741;27;20041;-77
2023/07/16 03:13:52;;;;;;;12.73;3.63;;;;;;;;;;5084541;27;20043;-77
2023/07/16 03:16:18;;;;;;;14.68;4.18;;;;;;;;;;5084729;27;20130;-77
2023/07/16 03:18:45;;;;;;;10.05;4.50;;;;;;;;;;5085668;27;20035;-77
2023/07/16 03:21:11;;;;;;;7.60;3.88;;;;;;;;;;5067339;27;20051;-77
2023/07/16 03:23:37;;;;;;;10.60;4.00;;;;;;;;;;5086120;27;20524;-77
2023/07/16 03:26:03;;;;;;;7.82;3.30;;;;;;;;;;5085650;27;21333;-76
2023/07/16 03:28:29;;;;;;;9.13;4.20;;;;;;;;;;5103652;27;20039;-77
2023/07/16 03:30:55;;;;;;;16.83;5.35;;;;;;;;;;5084866;27;20043;-77
2023/07/16 03:33:21;;;;;;;8.63;4.00;;;;;;;;;;5102606;27;20039;-77
2023/07/16 03:35:49;;;;;;;10.15;4.00;;;;;;;;;;5087371;27;20043;-77
2023/07/16 03:38:15;;;;;;;12.20;4.32;;;;;;;;;;5087894;27;20039;-77
2023/07/16 03:40:46;;;;;;;10.10;4.63;;;;;;;;;;5104019;27;20058;-77
2023/07/16 03:43:12;;;;;;;8.18;3.60;;;;;;;;;;5089686;27;20039;-78
2023/07/16 03:45:38;;;;;;;9.02;3.95;;;;;;;;;;5110499;27;20039;-77
2023/07/16 03:48:04;;;;;;;13.57;4.20;;;;;;;;;;5084100;27;20196;-77
2023/07/16 03:50:31;;;;;;;9.90;4.18;;;;;;;;;;5110231;27;20062;-77
2023/07/16 03:52:57;;;;;;;12.05;3.30;;;;;;;;;;5112532;27;20077;-76
2023/07/16 03:55:23;;;;;;;12.63;4.40;;;;;;;;;;5092740;27;20054;-78
2023/07/16 03:57:49;;;;;;;7.90;3.85;;;;;;;;;;5072852;27;20039;-77
2023/07/16 04:00:15;;;;;;;9.80;4.32;;;;;;;;;;5091769;27;20088;-78
2023/07/16 04:02:41;;;;;;;14.07;4.32;;;;;;;;;;5096412;27;20042;-78
2023/07/16 04:05:08;;;;;;;12.65;4.13;;;;;;;;;;5096071;27;20038;-77
2023/07/16 04:07:34;;;;;;;10.43;4.30;;;;;;;;;;5113648;27;20030;-77
2023/07/16 04:10:00;;;;;;;13.25;4.07;;;;;;;;;;5105954;27;20039;-77
2023/07/16 04:12:26;;;;;;;9.68;4.40;;;;;;;;;;5067877;27;20107;-77
2023/07/16 04:14:57;;;;;;;14.70;5.03;;;;;;;;;;5112939;27;20039;-76
2023/07/16 04:17:23;;;;;;;15.10;4.68;;;;;;;;;;5108539;27;20054;-77
2023/07/16 04:19:49;;;;;;;13.88;4.63;;;;;;;;;;5104691;27;20072;-77
2023/07/16 04:22:15;;;;;;;13.25;4.70;;;;;;;;;;5069383;27;20043;-77
2023/07/16 04:24:41;;;;;;;11.30;4.63;;;;;;;;;;5081638;27;20513;-78
2023/07/16 04:27:07;;;;;;;10.13;4.32;;;;;;;;;;5083743;27;20081;-77
2023/07/16 04:29:33;;;;;;;12.98;4.15;;;;;;;;;;5081759;27;20070;-78
2023/07/16 04:32:00;;;;;;;10.23;4.95;;;;;;;;;;5100192;27;20054;-76
2023/07/16 04:34:26;;;;;;;6.97;4.40;;;;;;;;;;5101864;27;20158;-76
2023/07/16 04:36:52;;;;;;;12.55;4.80;;;;;;;;;;5099672;27;20165;-75
2023/07/16 04:39:18;;;;;;;11.18;4.57;;;;;;;;;;5083540;27;20039;-77
2023/07/16 04:41:44;;;;;;;9.82;4.13;;;;;;;;;;5082725;27;20062;-77
2023/07/16 04:44:10;;;;;;;14.35;5.03;;;;;;;;;;5102681;27;20067;-78
2023/07/16 04:46:37;;;;;;;11.02;3.90;;;;;;;;;;5099308;27;20047;-76
2023/07/16 04:49:05;;;;;;;11.98;4.93;;;;;;;;;;5083198;27;20260;-76
2023/07/16 04:51:31;;;;;;;13.07;5.22;;;;;;;;;;5084113;27;20046;-78
2023/07/16 04:53:57;;;;;;;11.35;4.72;;;;;;;;;;5101964;27;20084;-77
2023/07/16 04:56:23;;;;;;;11.98;4.40;;;;;;;;;;5101209;27;20050;-77
2023/07/16 04:58:49;;;;;;;10.68;4.63;;;;;;;;;;5060082;27;20069;-73
2023/07/16 05:01:15;;;;;;;12.68;4.68;;;;;;;;;;5100799;27;20089;-73
2023/07/16 05:03:41;;;;;;;12.57;5.45;;;;;;;;;;5065642;27;21910;-74
2023/07/16 05:06:07;;;;;;;13.88;5.20;;;;;;;;;;5100246;27;20063;-74
2023/07/16 05:08:33;;;;;;;12.93;5.25;;;;;;;;;;5097996;27;20042;-78
2023/07/16 05:11:00;;;;;;;16.35;5.75;;;;;;;;;;5080972;27;20119;-78
2023/07/16 05:13:26;;;;;;;13.13;5.22;;;;;;;;;;5081961;27;20046;-77
2023/07/16 05:15:52;;;;;;;9.75;4.72;;;;;;;;;;5100852;27;20039;-77
2023/07/16 05:18:18;;;;;;;10.85;4.60;;;;;;;;;;5102516;27;20043;-77
2023/07/16 05:20:47;;;;;;;11.65;4.72;;;;;;;;;;5065503;27;20047;-77
2023/07/16 05:23:13;;;;;;;15.63;5.22;;;;;;;;;;5095834;27;20040;-76
2023/07/16 05:25:40;;;;;;;11.40;4.65;;;;;;;;;;5100547;27;20509;-77
2023/07/16 05:28:06;;;;;;;9.75;5.20;;;;;;;;;;5084692;27;20066;-77
2023/07/16 05:30:32;;;;;;;10.68;5.05;;;;;;;;;;5085686;27;20140;-78
2023/07/16 05:32:58;;;;;;;10.80;5.30;;;;;;;;;;5089174;27;20146;-78
2023/07/16 05:35:24;;;;;;;6.57;3.85;;;;;;;;;;5069592;27;22172;-77
2023/07/16 05:37:50;;;;;;;10.52;5.05;;;;;;;;;;5103996;27;20032;-77
2023/07/16 05:40:16;;;;;;;11.82;4.70;;;;;;;;;;5101708;27;20039;-77
2023/07/16 05:42:42;;;;;;;9.88;4.07;;;;;;;;;;5104929;27;20043;-75
2023/07/16 05:45:08;;;;;;;11.95;5.03;;;;;;;;;;5085164;27;20047;-78
2023/07/16 05:47:34;;;;;;;10.95;3.80;;;;;;;;;;5083785;27;20099;-79
2023/07/16 05:50:01;;;;;;;11.07;4.93;;;;;;;;;;5084218;27;20111;-78
2023/07/16 05:52:27;;;;;;;9.20;4.55;;;;;;;;;;5067903;27;20169;-78
2023/07/16 05:54:53;;;;;;;12.60;4.30;;;;;;;;;;5068404;27;20042;-77
2023/07/16 05:57:19;;;;;;;23.67;5.32;;;;;;;;;;5084320;27;20138;-77
2023/07/16 05:59:45;;;;;;;9.07;4.00;;;;;;;;;;5103128;27;20128;-78
2023/07/16 06:02:14;;;;;;;13.50;4.13;;;;;;;;;;5102346;27;20500;-73
2023/07/16 06:04:40;;;;;;;7.85;4.05;;;;;;;;;;5052888;27;20086;-73
2023/07/16 06:07:06;;;;;;;9.65;3.95;;;;;;;;;;5081247;27;20686;-73
2023/07/16 06:09:33;;;;;;;9.35;3.60;;;;;;;;;;5084431;27;20084;-73
2023/07/16 06:11:59;;;;;;;12.93;3.72;;;;;;;;;;5100947;27;20047;-73
2023/07/16 06:14:25;;;;;;;8.77;3.83;;;;;;;;;;5099577;27;20043;-74
2023/07/16 06:16:52;;;;;;;7.35;3.15;;;;;;;;;;5083488;27;20080;-73
2023/07/16 06:19:18;;;;;;;11.85;3.97;;;;;;;;;;5083778;27;20035;-73
2023/07/16 06:21:44;;;;;;;10.85;3.92;;;;;;;;;;5098000;27;20991;-74
2023/07/16 06:24:10;;;;;;;9.20;3.90;;;;;;;;;;5087756;27;20039;-74
2023/07/16 06:26:36;;;;;;;10.30;3.53;;;;;;;;;;5102962;27;20047;-74
2023/07/16 06:29:03;;;;;;;10.82;4.57;;;;;;;;;;5099689;27;20042;-73
2023/07/16 06:31:29;;;;;;;7.30;3.58;;;;;;;;;;5083487;27;20050;-74
2023/07/16 06:33:55;;;;;;;11.50;3.47;;;;;;;;;;5087636;27;20043;-74
2023/07/16 06:36:21;;;;;;;11.68;5.03;;;;;;;;;;5084903;27;20171;-74
2023/07/16 06:38:47;;;;;;;9.57;3.92;;;;;;;;;;5070655;27;20463;-74
2023/07/16 06:41:13;;;;;;;10.50;3.80;;;;;;;;;;5088653;27;20487;-74
2023/07/16 06:43:39;;;;;;;7.38;3.63;;;;;;;;;;5085244;27;20047;-74
2023/07/16 06:46:06;;;;;;;12.73;3.63;;;;;;;;;;5066724;27;20047;-74
2023/07/16 06:48:32;;;;;;;10.20;4.20;;;;;;;;;;5086441;27;20086;-73
2023/07/16 06:50:58;;;;;;;9.80;3.55;;;;;;;;;;5049707;27;20107;-73
2023/07/16 06:53:24;;;;;;;8.35;3.45;;;;;;;;;;5103905;27;20402;-74
2023/07/16 06:55:51;;;;;;;9.73;4.78;;;;;;;;;;5101160;27;20074;-73
2023/07/16 06:58:17;;;;;;;12.55;4.38;;;;;;;;;;5077720;27;20059;-72
2023/07/16 07:00:43;;;;;;;8.57;4.07;;;;;;;;;;5105117;27;20039;-72
2023/07/16 07:03:09;;;;;;;8.85;3.72;;;;;;;;;;5077501;27;20193;-73
2023/07/16 07:05:38;;;;;;;10.43;4.53;;;;;;;;;;5067845;27;20050;-73
2023/07/16 07:08:04;;;;;;;8.55;3.28;;;;;;;;;;5101966;27;20132;-74
2023/07/16 07:10:30;;;;;;;11.93;4.65;;;;;;;;;;5096254;27;20052;-73
2023/07/16 07:12:56;;;;;;;10.50;4.85;;;;;;;;;;5069088;27;20050;-74
2023/07/16 07:15:22;;;;;;;7.30;3.67;;;;;;;;;;5082816;27;20044;-73
2023/07/16 07:17:49;;;;;;;13.55;4.03;;;;;;;;;;5071134;27;20097;-73
2023/07/16 07:20:16;;;;;;;11.40;5.32;;;;;;;;;;5100823;27;20119;-74
2023/07/16 07:22:42;;;;;;;15.93;4.03;;;;;;;;;;5083136;27;20046;-73
2023/07/16 07:25:08;;;;;;;11.20;4.00;;;;;;;;;;5068000;27;20099;-75
2023/07/16 07:27:35;;;;;;;12.45;3.35;;;;;;;;;;5082509;27;20459;-75
2023/07/16 07:30:01;;;;;;;13.02;5.13;;;;;;;;;;5082851;27;20051;-75
2023/07/16 07:32:29;;;;;;;10.95;4.32;;;;;;;;;;5083446;27;20047;-75
2023/07/16 07:34:55;;;;;;;8.68;4.20;;;;;;;;;;5084723;27;20493;-74
2023/07/16 07:37:21;;;;;;;11.45;4.25;;;;;;;;;;5082906;27;20050;-73
2023/07/16 07:39:52;;;;;;;7.60;3.97;;;;;;;;;;5063840;27;20095;-73
2023/07/16 07:42:18;;;;;;;12.93;4.70;;;;;;;;;;5100398;27;20096;-73
2023/07/16 07:44:44;;;;;;;8.38;4.32;;;;;;;;;;5101668;27;20036;-74
2023/07/16 07:47:10;;;;;;;11.13;4.75;;;;;;;;;;5064150;27;20039;-74
2023/07/16 07:49:36;;;;;;;7.97;3.75;;;;;;;;;;5080235;27;20578;-74
2023/07/16 07:52:02;;;;;;;6.65;4.05;;;;;;;;;;5081881;27;20134;-74
2023/07/16 07:54:29;;;;;;;9.68;4.55;;;;;;;;;;5084074;27;20110;-74
2023/07/16 07:56:55;;;;;;;10.07;4.60;;;;;;;;;;5049006;27;20496;-73
2023/07/16 07:59:21;;;;;;;15.65;5.15;;;;;;;;;;5100760;27;20130;-74
2023/07/16 08:01:47;;;;;;;11.40;4.97;;;;;;;;;;5103367;27;20040;-74
2023/07/16 08:04:13;;;;;;;10.38;4.20;;;;;;;;;;5082902;27;20047;-72
2023/07/16 08:06:39;;;;;;;11.55;5.65;;;;;;;;;;5065515;27;20558;-74
2023/07/16 08:09:05;;;;;;;6.90;3.88;;;;;;;;;;5083072;27;20067;-74
2023/07/16 08:11:31;;;;;;;11.48;5.13;;;;;;;;;;5068124;27;20069;-73
2023/07/16 08:13:57;;;;;;;13.00;4.53;;;;;;;;;;5081170;27;20070;-73
2023/07/16 08:16:23;;;;;;;9.75;4.68;;;;;;;;;;5092645;27;20506;-75
2023/07/16 08:18:50;;;;;;;11.05;4.72;;;;;;;;;;5097654;27;20046;-73
2023/07/16 08:21:19;;;;;;;10.82;4.65;;;;;;;;;;5052783;27;20040;-74
2023/07/16 08:23:54;;;;;;;6.38;3.78;;;;;;;;;;5074579;27;20514;-73
2023/07/16 08:26:21;;;;;;;12.93;4.32;;;;;;;;;;5094425;27;20047;-74
2023/07/16 08:28:47;;;;;;;10.23;4.55;;;;;;;;;;5079322;27;20058;-75
2023/07/16 08:31:13;;;;;;;9.15;3.55;;;;;;;;;;5078835;27;20042;-73
2023/07/16 08:33:39;;;;;;;8.63;4.20;;;;;;;;;;5065237;27;20158;-74
2023/07/16 08:36:05;;;;;;;6.85;4.18;;;;;;;;;;5061576;27;20050;-74
2023/07/16 08:38:31;;;;;;;10.73;4.80;;;;;;;;;;5097812;27;20054;-74
2023/07/16 08:40:57;;;;;;;7.47;4.35;;;;;;;;;;5098060;27;20161;-74
2023/07/16 08:43:24;;;;;;;7.78;3.78;;;;;;;;;;5080606;27;20039;-74
2023/07/16 08:45:50;;;;;;;6.57;3.75;;;;;;;;;;5082733;27;20054;-73
2023/07/16 08:48:19;;;;;;;6.95;4.20;;;;;;;;;;5067334;27;20043;-72
2023/07/16 08:50:49;;;;;;;11.18;4.75;;;;;;;;;;5082015;27;21097;-73
2023/07/16 08:53:16;;;;;;;11.82;5.53;;;;;;;;;;5080412;27;20131;-73
2023/07/16 08:55:44;;;;;;;6.78;4.20;;;;;;;;;;5099089;27;20047;-73
2023/07/16 08:58:10;;;;;;;14.40;4.72;;;;;;;;;;5102441;27;20479;-74
2023/07/16 09:00:37;;;;;;;12.82;6.10;;;;;;;;;;5101707;27;20103;-74
2023/07/16 09:03:04;;;;;;;10.30;5.60;;;;;;;;;;5086222;28;20123;-73
2023/07/16 09:05:30;;;;;;;12.15;5.65;;;;;;;;;;5099783;27;20050;-73
2023/07/16 09:07:56;;;;;;;14.55;6.40;;;;;;;;;;5085608;27;20043;-74
2023/07/16 09:10:23;;;;;;;9.50;4.95;;;;;;;;;;5080195;27;20042;-73
2023/07/16 09:12:49;;;;;;;13.68;5.28;;;;;;;;;;5081673;28;20386;-73
2023/07/16 09:15:21;;;;;;;10.68;5.57;;;;;;;;;;5083348;28;20130;-74
2023/07/16 09:17:48;;;;;;;9.77;4.57;;;;;;;;;;5081249;28;20039;-74
2023/07/16 09:20:16;;;;;;;14.07;5.13;;;;;;;;;;5081008;28;20452;-74
2023/07/16 09:22:42;;;;;;;9.75;5.45;;;;;;;;;;5066126;28;20047;-74
2023/07/16 09:25:09;;;;;;;8.80;4.20;;;;;;;;;;5084019;28;20047;-74
2023/07/16 09:27:35;;;;;;;8.50;5.07;;;;;;;;;;5099739;27;20507;-75
2023/07/16 09:30:04;;;;;;;8.25;4.70;;;;;;;;;;5076937;28;20039;-74
2023/07/16 09:32:34;;;;;;;7.65;4.18;;;;;;;;;;5096631;27;20046;-74
2023/07/16 09:35:01;;;;;;;8.60;4.47;;;;;;;;;;5100213;27;20039;-74
2023/07/16 09:37:28;;;;;;;12.65;4.40;;;;;;;;;;5094347;27;20106;-73
2023/07/16 09:39:54;;;;;;;7.45;3.60;;;;;;;;;;5097424;27;20035;-74
2023/07/16 09:42:21;;;;;;;11.48;3.83;;;;;;;;;;5098008;27;20110;-74
2023/07/16 09:44:47;;;;;;;5.32;3.05;;;;;;;;;;5080213;27;20055;-74
2023/07/16 09:47:13;;;;;;;10.00;4.25;;;;;;;;;;5097680;27;20066;-74
2023/07/16 09:49:39;;;;;;;13.45;4.78;;;;;;;;;;5080965;27;20049;-74
2023/07/16 09:52:06;;;;;;;10.13;4.72;;;;;;;;;;5100666;27;20040;-74
2023/07/16 09:54:34;;;;;;;10.55;4.75;;;;;;;;;;5078580;27;20578;-75
2023/07/16 09:57:01;;;;;;;9.00;3.85;;;;;;;;;;5079582;27;20090;-73
2023/07/16 09:59:32;;;;;;;11.35;4.00;;;;;;;;;;5067316;27;20073;-76
2023/07/16 10:01:58;;;;;;;10.20;4.20;;;;;;;;;;5081356;28;20122;-77
2023/07/16 10:04:24;;;;;;;10.25;3.65;;;;;;;;;;5079717;28;20130;-75
2023/07/16 10:06:51;;;;;;;9.25;3.83;;;;;;;;;;5064085;28;20140;-76
2023/07/16 10:09:32;;;;;;;12.50;3.80;;;;;;;;;;5081083;28;20073;-76
2023/07/16 10:12:08;;;;;;;11.27;3.70;;;;;;;;;;5069923;27;20200;-76
2023/07/16 10:14:39;;;;;;;10.10;3.78;;;;;;;;;;5083849;27;20051;-77
2023/07/16 10:17:06;;;;;;;5.35;3.17;;;;;;;;;;5086759;27;20042;-77
2023/07/16 10:19:35;;;;;;;9.88;4.15;;;;;;;;;;5074383;27;20589;-77
2023/07/16 10:22:01;;;;;;;9.52;3.88;;;;;;;;;;5073469;27;20039;-75
2023/07/16 10:24:28;;;;;;;6.72;3.83;;;;;;;;;;5091116;27;20032;-76
2023/07/16 10:26:54;;;;;;;9.85;4.30;;;;;;;;;;5089297;27;20053;-76
2023/07/16 10:29:20;;;;;;;7.43;3.17;;;;;;;;;;5090284;27;20121;-76
2023/07/16 10:31:46;;;;;;;8.98;4.72;;;;;;;;;;5070619;27;20464;-76
2023/07/16 10:34:13;;;;;;;12.73;5.13;;;;;;;;;;5087277;27;20051;-77
2023/07/16 10:36:39;;;;;;;5.97;3.30;;;;;;;;;;5106040;27;20777;-77
2023/07/16 10:39:06;;;;;;;9.15;3.72;;;;;;;;;;5089179;27;20046;-77
2023/07/16 10:41:35;;;;;;;9.55;5.20;;;;;;;;;;5090440;27;20391;-77
2023/07/16 10:44:01;;;;;;;7.68;4.10;;;;;;;;;;5089838;27;20037;-76
2023/07/16 10:46:27;;;;;;;8.55;4.10;;;;;;;;;;5090767;27;20047;-78
2023/07/16 10:48:53;;;;;;;6.40;3.83;;;;;;;;;;5088711;28;20117;-78
2023/07/16 10:51:26;;;;;;;10.10;4.10;;;;;;;;;;5087938;27;20130;-76
2023/07/16 10:53:52;;;;;;;10.23;3.90;;;;;;;;;;5088773;28;20282;-78
2023/07/16 10:56:20;;;;;;;9.18;4.35;;;;;;;;;;5089784;28;20040;-77
2023/07/16 10:58:46;;;;;;;6.40;3.78;;;;;;;;;;5087913;28;20043;-76
2023/07/16 11:01:12;;;;;;;6.15;3.30;;;;;;;;;;5083514;27;20303;-77
2023/07/16 11:03:38;;;;;;;10.73;4.03;;;;;;;;;;5081437;28;20092;-76
2023/07/16 11:06:09;;;;;;;8.13;4.35;;;;;;;;;;5084685;28;20573;-76
2023/07/16 11:08:35;;;;;;;9.23;4.50;;;;;;;;;;5083937;28;20071;-76
2023/07/16 11:11:01;;;;;;;11.13;4.40;;;;;;;;;;5083671;28;20157;-76
2023/07/16 11:13:32;;;;;;;7.80;3.85;;;;;;;;;;5068180;28;20043;-76
2023/07/16 11:16:08;;;;;;;5.78;3.00;;;;;;;;;;5088026;28;20036;-77
2023/07/16 11:18:35;;;;;;;6.07;3.45;;;;;;;;;;5081548;28;20922;-77
2023/07/16 11:21:01;;;;;;;9.00;4.25;;;;;;;;;;5070252;28;20074;-76
2023/07/16 11:23:27;;;;;;;6.18;3.47;;;;;;;;;;5079336;27;20039;-77
2023/07/16 11:25:53;;;;;;;6.30;3.10;;;;;;;;;;5076383;28;20344;-77
2023/07/16 11:28:19;;;;;;;7.07;3.83;;;;;;;;;;5076952;27;20122;-76
2023/07/16 11:30:45;;;;;;;11.00;4.28;;;;;;;;;;5071102;28;20055;-76
2023/07/16 11:33:12;;;;;;;7.40;3.42;;;;;;;;;;5073204;28;20035;-77
2023/07/16 11:35:38;;;;;;;7.47;4.00;;;;;;;;;;5053815;28;20768;-76
2023/07/16 11:38:08;;;;;;;7.20;3.60;;;;;;;;;;5075999;28;20058;-75
2023/07/16 11:40:37;;;;;;;6.57;3.60;;;;;;;;;;5075784;28;20059;-76
2023/07/16 11:43:13;;;;;;;7.43;3.13;;;;;;;;;;5072061;27;20043;-76
2023/07/16 11:45:39;;;;;;;10.07;3.80;;;;;;;;;;5059184;28;20065;-75
2023/07/16 11:48:07;;;;;;;9.65;4.38;;;;;;;;;;5070670;27;20449;-79
2023/07/16 11:50:34;;;;;;;10.05;3.95;;;;;;;;;;5043652;28;20137;-78
2023/07/16 11:53:01;;;;;;;9.35;4.28;;;;;;;;;;5035560;28;20048;-77
2023/07/16 11:55:27;;;;;;;8.88;4.20;;;;;;;;;;5078228;28;20052;-77
2023/07/16 11:57:54;;;;;;;6.75;3.08;;;;;;;;;;5061356;28;20067;-77
2023/07/16 12:00:20;;;;;;;5.75;3.50;;;;;;;;;;5054456;28;20064;-78
2023/07/16 12:02:51;;;;;;;7.15;3.25;;;;;;;;;;5057405;28;21685;-77
2023/07/16 12:05:20;;;;;;;6.25;3.80;;;;;;;;;;5057552;28;20058;-78
2023/07/16 12:07:47;;;;;;;8.32;3.28;;;;;;;;;;5060437;28;20062;-77
2023/07/16 12:10:13;;;;;;;9.07;3.53;;;;;;;;;;5062701;28;20487;-77
2023/07/16 12:12:39;;;;;;;15.38;3.53;;;;;;;;;;5063771;28;20044;-77
2023/07/16 12:15:06;;;;;;;9.43;3.83;;;;;;;;;;5058805;28;20076;-78
2023/07/16 12:17:32;;;;;;;7.60;3.88;;;;;;;;;;5042025;28;20048;-76
2023/07/16 12:19:58;;;;;;;9.40;5.10;;;;;;;;;;5023689;28;20051;-76
2023/07/16 12:22:27;;;;;;;12.68;4.40;;;;;;;;;;5056941;28;20047;-77
2023/07/16 12:24:53;;;;;;;9.65;4.72;;;;;;;;;;5056590;28;20240;-77
2023/07/16 12:27:20;;;;;;;7.85;3.78;;;;;;;;;;5056062;28;20047;-77
2023/07/16 12:29:46;;;;;;;11.13;4.43;;;;;;;;;;5075251;28;20248;-77
2023/07/16 12:32:16;;;;;;;9.80;4.85;;;;;;;;;;5038397;28;20369;-76
2023/07/16 12:34:42;;;;;;;12.38;4.85;;;;;;;;;;5060892;28;20035;-77
2023/07/16 12:37:08;;;;;;;10.60;4.45;;;;;;;;;;5041071;28;20044;-77
2023/07/16 12:39:34;;;;;;;9.95;4.50;;;;;;;;;;5058648;28;20040;-77
2023/07/16 12:42:01;;;;;;;12.70;4.68;;;;;;;;;;5056941;28;20040;-78
2023/07/16 12:44:27;;;;;;;8.43;3.97;;;;;;;;;;5055118;28;20055;-78
2023/07/16 12:46:53;;;;;;;5.60;3.40;;;;;;;;;;5055462;28;20055;-77
2023/07/16 12:49:20;;;;;;;11.05;4.95;;;;;;;;;;5078121;27;20799;-77
2023/07/16 12:51:46;;;;;;;11.32;5.10;;;;;;;;;;5077871;28;20529;-75
2023/07/16 12:54:13;;;;;;;10.43;5.35;;;;;;;;;;5072441;28;20040;-77
2023/07/16 12:56:39;;;;;;;13.98;5.38;;;;;;;;;;5071535;28;21571;-77
2023/07/16 12:59:06;;;;;;;7.47;4.57;;;;;;;;;;5058670;28;20051;-76
2023/07/16 13:01:35;;;;;;;15.07;5.60;;;;;;;;;;5075620;28;20047;-77
2023/07/16 13:04:01;;;;;;;9.82;4.78;;;;;;;;;;5058802;28;20116;-76
2023/07/16 13:06:27;;;;;;;8.07;4.82;;;;;;;;;;5056766;28;20473;-77
2023/07/16 13:08:53;;;;;;;11.25;5.40;;;;;;;;;;5071325;28;20082;-76
2023/07/16 13:11:19;;;;;;;8.63;4.22;;;;;;;;;;5072906;28;20051;-77
2023/07/16 13:13:45;;;;;;;10.23;4.97;;;;;;;;;;5071999;28;20044;-78
2023/07/16 13:16:11;;;;;;;9.07;4.13;;;;;;;;;;5071880;28;20399;-76
2023/07/16 13:18:37;;;;;;;7.78;3.53;;;;;;;;;;5077445;28;21772;-77
2023/07/16 13:21:03;;;;;;;8.52;4.40;;;;;;;;;;5076531;28;20276;-77
2023/07/16 13:23:29;;;;;;;10.20;5.07;;;;;;;;;;5071352;28;20032;-76
2023/07/16 13:25:56;;;;;;;6.55;3.92;;;;;;;;;;5074267;28;20058;-77
2023/07/16 13:28:24;;;;;;;8.25;4.38;;;;;;;;;;5080575;28;20044;-76
2023/07/16 13:30:50;;;;;;;9.13;4.22;;;;;;;;;;5080460;28;20039;-76
2023/07/16 13:33:16;;;;;;;5.95;3.35;;;;;;;;;;5074198;28;20065;-77
2023/07/16 13:35:42;;;;;;;10.43;4.18;;;;;;;;;;5074219;28;20142;-77
2023/07/16 13:38:08;;;;;;;8.85;4.10;;;;;;;;;;5067112;28;20042;-77
2023/07/16 13:40:34;;;;;;;8.65;4.57;;;;;;;;;;5077190;28;20503;-76
2023/07/16 13:43:00;;;;;;;8.57;4.25;;;;;;;;;;5075579;28;20074;-77
2023/07/16 13:45:26;;;;;;;10.93;4.60;;;;;;;;;;5063621;28;20201;-76
2023/07/16 13:48:00;;;;;;;8.63;4.05;;;;;;;;;;5078392;28;20078;-76
2023/07/16 13:50:38;;;;;;;14.43;4.75;;;;;;;;;;5074480;27;20055;-75
2023/07/16 13:53:04;;;;;;;8.93;4.00;;;;;;;;;;5080846;28;20129;-75
2023/07/16 13:55:30;;;;;;;9.68;4.07;;;;;;;;;;5082394;27;20130;-75
2023/07/16 13:57:56;;;;;;;9.48;3.55;;;;;;;;;;5084727;27;20460;-76
2023/07/16 14:00:23;;;;;;;9.10;3.92;;;;;;;;;;5068116;28;20057;-77
2023/07/16 14:02:52;;;;;;;12.60;4.10;;;;;;;;;;5082677;28;20331;-76
2023/07/16 14:05:19;;;;;;;8.23;3.47;;;;;;;;;;5084976;27;20438;-77
2023/07/16 14:07:50;;;;;;;12.68;3.92;;;;;;;;;;5066283;28;20083;-76
2023/07/16 14:10:19;;;;;;;11.95;3.60;;;;;;;;;;5075704;28;20594;-76
2023/07/16 14:12:45;;;;;;;7.03;2.58;;;;;;;;;;5063482;28;20170;-77
2023/07/16 14:15:11;;;;;;;7.70;3.00;;;;;;;;;;5066696;28;20048;-76
2023/07/16 14:17:40;;;;;;;10.98;2.90;;;;;;;;;;5082514;28;20047;-76
2023/07/16 14:20:07;;;;;;;8.07;2.58;;;;;;;;;;5058965;28;20036;-76
2023/07/16 14:22:33;;;;;;;7.82;2.45;;;;;;;;;;5055044;28;20925;-77
2023/07/16 14:24:59;;;;;;;6.43;2.15;;;;;;;;;;5075677;28;21071;-76
2023/07/16 14:27:25;;;;;;;14.23;2.78;;;;;;;;;;5079424;28;20040;-76
2023/07/16 14:29:52;;;;;;;8.07;2.60;;;;;;;;;;5090471;27;20032;-76
2023/07/16 14:32:18;;;;;;;9.30;2.80;;;;;;;;;;5074920;28;20040;-76